sensor_id;sensor_type;location;lat;lon;timestamp;P1;durP1;ratioP1;P2;durP2;ratioP2
61407;SDS011;47274;43.054;25.146;2023-05-10T00:01:23;27.70;;;16.30;;
61407;SDS011;47274;43.054;25.146;2023-05-10T00:03:49;23.47;;;14.23;;
61407;SDS011;47274;43.054;25.146;2023-05-10T00:06:15;24.33;;;13.87;;
61407;SDS011;47274;43.054;25.146;2023-05-10T00:08:41;22.83;;;12.77;;
61407;SDS011;47274;43.054;25.146;2023-05-10T00:11:07;26.87;;;12.83;;
61407;SDS011;47274;43.054;25.146;2023-05-10T00:13:32;23.23;;;12.68;;
61407;SDS011;47274;43.054;25.146;2023-05-10T00:15:58;22.98;;;12.88;;
61407;SDS011;47274;43.054;25.146;2023-05-10T00:18:24;24.20;;;14.00;;
61407;SDS011;47274;43.054;25.146;2023-05-10T00:20:49;24.33;;;12.90;;
61407;SDS011;47274;43.054;25.146;2023-05-10T00:23:16;24.00;;;13.80;;
61407;SDS011;47274;43.054;25.146;2023-05-10T00:25:41;26.63;;;14.53;;
61407;SDS011;47274;43.054;25.146;2023-05-10T00:28:07;25.07;;;13.77;;
61407;SDS011;47274;43.054;25.146;2023-05-10T00:30:33;23.03;;;12.50;;
61407;SDS011;47274;43.054;25.146;2023-05-10T00:33:00;21.70;;;12.40;;
61407;SDS011;47274;43.054;25.146;2023-05-10T00:35:26;21.97;;;11.40;;
61407;SDS011;47274;43.054;25.146;2023-05-10T00:37:52;20.07;;;11.17;;
61407;SDS011;47274;43.054;25.146;2023-05-10T00:40:19;20.57;;;11.17;;
61407;SDS011;47274;43.054;25.146;2023-05-10T00:42:50;20.97;;;10.47;;
61407;SDS011;47274;43.054;25.146;2023-05-10T00:45:16;17.93;;;8.70;;
61407;SDS011;47274;43.054;25.146;2023-05-10T00:47:41;19.53;;;9.57;;
61407;SDS011;47274;43.054;25.146;2023-05-10T00:50:07;17.07;;;8.50;;
61407;SDS011;47274;43.054;25.146;2023-05-10T00:52:34;19.40;;;10.00;;
61407;SDS011;47274;43.054;25.146;2023-05-10T00:55:00;15.40;;;7.70;;
61407;SDS011;47274;43.054;25.146;2023-05-10T00:57:26;17.07;;;8.40;;
61407;SDS011;47274;43.054;25.146;2023-05-10T00:59:52;18.20;;;8.50;;
61407;SDS011;47274;43.054;25.146;2023-05-10T01:02:18;17.47;;;8.13;;
61407;SDS011;47274;43.054;25.146;2023-05-10T01:04:43;14.63;;;7.90;;
61407;SDS011;47274;43.054;25.146;2023-05-10T01:07:09;15.87;;;8.40;;
61407;SDS011;47274;43.054;25.146;2023-05-10T01:09:36;16.63;;;8.00;;
61407;SDS011;47274;43.054;25.146;2023-05-10T01:12:02;14.97;;;7.70;;
61407;SDS011;47274;43.054;25.146;2023-05-10T01:14:32;15.87;;;8.13;;
61407;SDS011;47274;43.054;25.146;2023-05-10T01:16:59;16.13;;;8.27;;
61407;SDS011;47274;43.054;25.146;2023-05-10T01:19:26;16.77;;;7.93;;
61407;SDS011;47274;43.054;25.146;2023-05-10T01:33:17;14.90;;;7.23;;
61407;SDS011;47274;43.054;25.146;2023-05-10T01:43:59;17.27;;;8.67;;
61407;SDS011;47274;43.054;25.146;2023-05-10T01:46:37;17.80;;;7.73;;
61407;SDS011;47274;43.054;25.146;2023-05-10T01:49:08;15.30;;;7.77;;
61407;SDS011;47274;43.054;25.146;2023-05-10T01:51:47;14.23;;;7.10;;
61407;SDS011;47274;43.054;25.146;2023-05-10T01:54:19;14.47;;;7.00;;
61407;SDS011;47274;43.054;25.146;2023-05-10T01:56:47;13.37;;;6.73;;
61407;SDS011;47274;43.054;25.146;2023-05-10T01:59:20;15.03;;;7.10;;
61407;SDS011;47274;43.054;25.146;2023-05-10T02:01:47;13.03;;;6.73;;
61407;SDS011;47274;43.054;25.146;2023-05-10T02:04:16;16.90;;;7.47;;
61407;SDS011;47274;43.054;25.146;2023-05-10T02:06:45;12.33;;;6.23;;
61407;SDS011;47274;43.054;25.146;2023-05-10T02:09:13;14.33;;;6.53;;
61407;SDS011;47274;43.054;25.146;2023-05-10T02:11:41;12.13;;;6.03;;
61407;SDS011;47274;43.054;25.146;2023-05-10T02:14:09;12.07;;;6.10;;
61407;SDS011;47274;43.054;25.146;2023-05-10T02:16:36;15.47;;;6.43;;
61407;SDS011;47274;43.054;25.146;2023-05-10T02:19:04;13.10;;;6.20;;
61407;SDS011;47274;43.054;25.146;2023-05-10T02:21:30;13.23;;;6.83;;
61407;SDS011;47274;43.054;25.146;2023-05-10T02:23:57;14.17;;;6.60;;
61407;SDS011;47274;43.054;25.146;2023-05-10T02:26:27;13.30;;;6.20;;
61407;SDS011;47274;43.054;25.146;2023-05-10T02:28:54;12.33;;;6.10;;
61407;SDS011;47274;43.054;25.146;2023-05-10T02:31:23;12.40;;;5.57;;
61407;SDS011;47274;43.054;25.146;2023-05-10T02:33:50;14.50;;;6.10;;
61407;SDS011;47274;43.054;25.146;2023-05-10T02:36:17;9.73;;;5.17;;
61407;SDS011;47274;43.054;25.146;2023-05-10T02:38:44;9.67;;;4.97;;
61407;SDS011;47274;43.054;25.146;2023-05-10T02:41:12;10.10;;;5.40;;
61407;SDS011;47274;43.054;25.146;2023-05-10T02:43:39;11.60;;;5.57;;
61407;SDS011;47274;43.054;25.146;2023-05-10T02:46:07;13.00;;;5.27;;
61407;SDS011;47274;43.054;25.146;2023-05-10T02:48:34;14.23;;;5.80;;
61407;SDS011;47274;43.054;25.146;2023-05-10T02:51:00;9.07;;;4.80;;
61407;SDS011;47274;43.054;25.146;2023-05-10T02:53:31;10.47;;;5.10;;
61407;SDS011;47274;43.054;25.146;2023-05-10T02:55:59;12.40;;;5.83;;
61407;SDS011;47274;43.054;25.146;2023-05-10T02:58:29;12.17;;;5.60;;
61407;SDS011;47274;43.054;25.146;2023-05-10T03:00:54;9.70;;;5.10;;
61407;SDS011;47274;43.054;25.146;2023-05-10T03:03:20;9.53;;;5.00;;
61407;SDS011;47274;43.054;25.146;2023-05-10T03:05:48;9.00;;;5.30;;
61407;SDS011;47274;43.054;25.146;2023-05-10T03:08:14;10.70;;;4.77;;
61407;SDS011;47274;43.054;25.146;2023-05-10T03:10:42;9.53;;;4.70;;
61407;SDS011;47274;43.054;25.146;2023-05-10T03:18:39;10.33;;;5.27;;
61407;SDS011;47274;43.054;25.146;2023-05-10T03:21:13;12.77;;;5.60;;
61407;SDS011;47274;43.054;25.146;2023-05-10T03:23:43;11.53;;;5.43;;
61407;SDS011;47274;43.054;25.146;2023-05-10T03:26:18;13.00;;;5.60;;
61407;SDS011;47274;43.054;25.146;2023-05-10T03:28:49;10.60;;;5.27;;
61407;SDS011;47274;43.054;25.146;2023-05-10T03:31:16;12.77;;;5.40;;
61407;SDS011;47274;43.054;25.146;2023-05-10T03:33:49;11.83;;;5.67;;
61407;SDS011;47274;43.054;25.146;2023-05-10T03:36:20;13.10;;;5.33;;
61407;SDS011;47274;43.054;25.146;2023-05-10T03:38:46;16.00;;;6.10;;
61407;SDS011;47274;43.054;25.146;2023-05-10T03:41:12;16.77;;;6.90;;
61407;SDS011;47274;43.054;25.146;2023-05-10T03:43:39;13.10;;;5.83;;
61407;SDS011;47274;43.054;25.146;2023-05-10T03:46:05;17.27;;;6.77;;
61407;SDS011;47274;43.054;25.146;2023-05-10T03:48:31;12.30;;;5.50;;
61407;SDS011;47274;43.054;25.146;2023-05-10T03:50:58;18.27;;;8.80;;
61407;SDS011;47274;43.054;25.146;2023-05-10T03:53:24;16.60;;;6.80;;
61407;SDS011;47274;43.054;25.146;2023-05-10T03:55:50;22.33;;;10.90;;
61407;SDS011;47274;43.054;25.146;2023-05-10T03:58:16;23.23;;;13.20;;
61407;SDS011;47274;43.054;25.146;2023-05-10T04:00:42;23.30;;;12.17;;
61407;SDS011;47274;43.054;25.146;2023-05-10T04:03:11;16.17;;;6.40;;
61407;SDS011;47274;43.054;25.146;2023-05-10T04:05:37;25.77;;;12.70;;
61407;SDS011;47274;43.054;25.146;2023-05-10T04:08:03;31.97;;;18.97;;
61407;SDS011;47274;43.054;25.146;2023-05-10T04:10:30;18.05;;;8.55;;
61407;SDS011;47274;43.054;25.146;2023-05-10T04:12:56;26.87;;;14.37;;
61407;SDS011;47274;43.054;25.146;2023-05-10T04:15:22;20.90;;;9.73;;
61407;SDS011;47274;43.054;25.146;2023-05-10T04:17:48;18.93;;;8.80;;
61407;SDS011;47274;43.054;25.146;2023-05-10T04:20:14;15.10;;;7.70;;
61407;SDS011;47274;43.054;25.146;2023-05-10T04:22:40;20.47;;;9.43;;
61407;SDS011;47274;43.054;25.146;2023-05-10T04:25:06;15.18;;;6.88;;
61407;SDS011;47274;43.054;25.146;2023-05-10T04:27:32;17.77;;;7.25;;
61407;SDS011;47274;43.054;25.146;2023-05-10T04:29:58;15.43;;;7.07;;
61407;SDS011;47274;43.054;25.146;2023-05-10T04:32:24;22.60;;;9.50;;
61407;SDS011;47274;43.054;25.146;2023-05-10T04:34:49;22.90;;;10.30;;
61407;SDS011;47274;43.054;25.146;2023-05-10T04:37:19;24.92;;;10.40;;
61407;SDS011;47274;43.054;25.146;2023-05-10T04:39:46;21.33;;;8.10;;
61407;SDS011;47274;43.054;25.146;2023-05-10T04:42:12;23.65;;;10.57;;
61407;SDS011;47274;43.054;25.146;2023-05-10T04:44:40;25.95;;;11.18;;
61407;SDS011;47274;43.054;25.146;2023-05-10T04:47:06;25.88;;;10.65;;
61407;SDS011;47274;43.054;25.146;2023-05-10T04:49:31;26.05;;;9.77;;
61407;SDS011;47274;43.054;25.146;2023-05-10T04:51:57;26.92;;;11.85;;
61407;SDS011;47274;43.054;25.146;2023-05-10T04:54:23;17.58;;;8.10;;
61407;SDS011;47274;43.054;25.146;2023-05-10T04:56:49;25.35;;;12.70;;
61407;SDS011;47274;43.054;25.146;2023-05-10T04:59:15;15.82;;;6.38;;
61407;SDS011;47274;43.054;25.146;2023-05-10T05:01:41;10.63;;;5.32;;
61407;SDS011;47274;43.054;25.146;2023-05-10T05:04:07;13.88;;;6.15;;
61407;SDS011;47274;43.054;25.146;2023-05-10T05:06:32;12.25;;;6.20;;
61407;SDS011;47274;43.054;25.146;2023-05-10T05:08:58;19.25;;;7.25;;
61407;SDS011;47274;43.054;25.146;2023-05-10T05:11:24;16.50;;;6.50;;
61407;SDS011;47274;43.054;25.146;2023-05-10T05:13:50;16.35;;;6.18;;
61407;SDS011;47274;43.054;25.146;2023-05-10T05:16:16;16.80;;;6.45;;
61407;SDS011;47274;43.054;25.146;2023-05-10T05:18:42;19.42;;;7.40;;
61407;SDS011;47274;43.054;25.146;2023-05-10T05:21:14;13.85;;;5.55;;
61407;SDS011;47274;43.054;25.146;2023-05-10T05:23:41;16.25;;;6.43;;
61407;SDS011;47274;43.054;25.146;2023-05-10T05:26:07;20.85;;;7.22;;
61407;SDS011;47274;43.054;25.146;2023-05-10T05:28:33;21.98;;;8.80;;
61407;SDS011;47274;43.054;25.146;2023-05-10T05:31:02;20.95;;;7.85;;
61407;SDS011;47274;43.054;25.146;2023-05-10T05:33:29;23.67;;;9.60;;
61407;SDS011;47274;43.054;25.146;2023-05-10T05:35:55;16.42;;;6.90;;
61407;SDS011;47274;43.054;25.146;2023-05-10T05:38:20;12.88;;;5.57;;
61407;SDS011;47274;43.054;25.146;2023-05-10T05:40:46;18.13;;;7.72;;
61407;SDS011;47274;43.054;25.146;2023-05-10T05:43:12;13.82;;;4.95;;
61407;SDS011;47274;43.054;25.146;2023-05-10T05:45:38;27.52;;;10.52;;
61407;SDS011;47274;43.054;25.146;2023-05-10T05:48:04;17.85;;;8.30;;
61407;SDS011;47274;43.054;25.146;2023-05-10T05:50:30;19.83;;;7.45;;
61407;SDS011;47274;43.054;25.146;2023-05-10T05:52:56;21.80;;;7.80;;
61407;SDS011;47274;43.054;25.146;2023-05-10T05:55:22;16.45;;;5.68;;
61407;SDS011;47274;43.054;25.146;2023-05-10T05:57:49;17.08;;;5.97;;
61407;SDS011;47274;43.054;25.146;2023-05-10T06:00:15;12.48;;;4.93;;
61407;SDS011;47274;43.054;25.146;2023-05-10T06:02:41;23.25;;;10.23;;
61407;SDS011;47274;43.054;25.146;2023-05-10T06:05:07;24.10;;;8.43;;
61407;SDS011;47274;43.054;25.146;2023-05-10T06:07:33;17.63;;;6.55;;
61407;SDS011;47274;43.054;25.146;2023-05-10T06:09:59;14.90;;;5.65;;
61407;SDS011;47274;43.054;25.146;2023-05-10T06:12:24;17.63;;;6.32;;
61407;SDS011;47274;43.054;25.146;2023-05-10T06:14:50;17.58;;;6.95;;
61407;SDS011;47274;43.054;25.146;2023-05-10T06:17:16;17.20;;;7.03;;
61407;SDS011;47274;43.054;25.146;2023-05-10T06:19:42;28.40;;;14.52;;
61407;SDS011;47274;43.054;25.146;2023-05-10T06:22:07;19.48;;;9.02;;
61407;SDS011;47274;43.054;25.146;2023-05-10T06:24:33;17.17;;;7.88;;
61407;SDS011;47274;43.054;25.146;2023-05-10T06:26:59;15.93;;;6.32;;
61407;SDS011;47274;43.054;25.146;2023-05-10T06:29:25;17.92;;;10.77;;
61407;SDS011;47274;43.054;25.146;2023-05-10T06:31:51;24.30;;;12.02;;
61407;SDS011;47274;43.054;25.146;2023-05-10T06:34:18;11.35;;;5.40;;
61407;SDS011;47274;43.054;25.146;2023-05-10T06:36:43;7.95;;;4.65;;
61407;SDS011;47274;43.054;25.146;2023-05-10T06:39:09;65.55;;;52.22;;
61407;SDS011;47274;43.054;25.146;2023-05-10T06:41:36;54.30;;;31.27;;
61407;SDS011;47274;43.054;25.146;2023-05-10T06:44:02;121.10;;;71.55;;
61407;SDS011;47274;43.054;25.146;2023-05-10T06:46:29;64.15;;;40.35;;
61407;SDS011;47274;43.054;25.146;2023-05-10T06:48:55;26.02;;;14.15;;
61407;SDS011;47274;43.054;25.146;2023-05-10T06:51:20;19.90;;;9.90;;
61407;SDS011;47274;43.054;25.146;2023-05-10T06:53:46;26.17;;;15.70;;
61407;SDS011;47274;43.054;25.146;2023-05-10T06:56:12;31.30;;;21.67;;
61407;SDS011;47274;43.054;25.146;2023-05-10T06:58:38;18.73;;;7.40;;
61407;SDS011;47274;43.054;25.146;2023-05-10T07:01:04;16.17;;;8.35;;
61407;SDS011;47274;43.054;25.146;2023-05-10T07:03:31;14.43;;;7.72;;
61407;SDS011;47274;43.054;25.146;2023-05-10T07:06:03;16.83;;;8.35;;
61407;SDS011;47274;43.054;25.146;2023-05-10T07:08:30;19.45;;;10.82;;
61407;SDS011;47274;43.054;25.146;2023-05-10T07:11:03;17.95;;;9.55;;
61407;SDS011;47274;43.054;25.146;2023-05-10T07:13:30;10.63;;;5.20;;
61407;SDS011;47274;43.054;25.146;2023-05-10T07:15:57;9.15;;;4.55;;
61407;SDS011;47274;43.054;25.146;2023-05-10T07:18:24;13.73;;;6.75;;
61407;SDS011;47274;43.054;25.146;2023-05-10T07:20:50;8.05;;;4.70;;
61407;SDS011;47274;43.054;25.146;2023-05-10T07:23:16;13.07;;;5.32;;
61407;SDS011;47274;43.054;25.146;2023-05-10T07:25:46;15.23;;;4.82;;
61407;SDS011;47274;43.054;25.146;2023-05-10T07:28:13;18.17;;;6.18;;
61407;SDS011;47274;43.054;25.146;2023-05-10T07:30:41;13.23;;;4.95;;
61407;SDS011;47274;43.054;25.146;2023-05-10T07:33:08;10.65;;;4.68;;
61407;SDS011;47274;43.054;25.146;2023-05-10T07:35:35;10.05;;;4.80;;
61407;SDS011;47274;43.054;25.146;2023-05-10T07:38:01;9.18;;;4.15;;
61407;SDS011;47274;43.054;25.146;2023-05-10T07:40:27;7.50;;;3.70;;
61407;SDS011;47274;43.054;25.146;2023-05-10T07:42:53;14.60;;;5.25;;
61407;SDS011;47274;43.054;25.146;2023-05-10T07:45:19;7.32;;;4.07;;
61407;SDS011;47274;43.054;25.146;2023-05-10T07:47:45;16.05;;;9.38;;
61407;SDS011;47274;43.054;25.146;2023-05-10T07:50:11;10.25;;;4.95;;
61407;SDS011;47274;43.054;25.146;2023-05-10T07:52:36;11.13;;;4.00;;
61407;SDS011;47274;43.054;25.146;2023-05-10T07:55:02;8.13;;;4.00;;
61407;SDS011;47274;43.054;25.146;2023-05-10T07:57:28;6.93;;;4.30;;
61407;SDS011;47274;43.054;25.146;2023-05-10T07:59:54;10.60;;;4.38;;
61407;SDS011;47274;43.054;25.146;2023-05-10T08:02:20;7.75;;;4.20;;
61407;SDS011;47274;43.054;25.146;2023-05-10T08:04:45;13.45;;;4.40;;
61407;SDS011;47274;43.054;25.146;2023-05-10T08:07:11;10.95;;;4.70;;
61407;SDS011;47274;43.054;25.146;2023-05-10T08:09:37;9.10;;;3.70;;
61407;SDS011;47274;43.054;25.146;2023-05-10T08:12:03;8.65;;;3.70;;
61407;SDS011;47274;43.054;25.146;2023-05-10T08:14:29;6.68;;;3.45;;
61407;SDS011;47274;43.054;25.146;2023-05-10T08:16:55;10.23;;;4.10;;
61407;SDS011;47274;43.054;25.146;2023-05-10T08:19:21;8.10;;;3.92;;
61407;SDS011;47274;43.054;25.146;2023-05-10T08:21:48;8.45;;;3.50;;
61407;SDS011;47274;43.054;25.146;2023-05-10T08:24:14;9.70;;;3.90;;
61407;SDS011;47274;43.054;25.146;2023-05-10T08:26:40;7.13;;;3.78;;
61407;SDS011;47274;43.054;25.146;2023-05-10T08:29:06;5.30;;;3.50;;
61407;SDS011;47274;43.054;25.146;2023-05-10T08:31:31;10.20;;;4.20;;
61407;SDS011;47274;43.054;25.146;2023-05-10T08:33:57;8.85;;;3.80;;
61407;SDS011;47274;43.054;25.146;2023-05-10T08:36:23;8.68;;;3.60;;
61407;SDS011;47274;43.054;25.146;2023-05-10T08:38:52;7.93;;;3.45;;
61407;SDS011;47274;43.054;25.146;2023-05-10T08:41:19;6.25;;;3.70;;
61407;SDS011;47274;43.054;25.146;2023-05-10T08:43:46;9.52;;;3.65;;
61407;SDS011;47274;43.054;25.146;2023-05-10T08:46:16;10.10;;;4.45;;
61407;SDS011;47274;43.054;25.146;2023-05-10T08:48:46;7.15;;;3.80;;
61407;SDS011;47274;43.054;25.146;2023-05-10T08:51:14;7.70;;;4.03;;
61407;SDS011;47274;43.054;25.146;2023-05-10T08:53:45;10.23;;;3.80;;
61407;SDS011;47274;43.054;25.146;2023-05-10T08:56:11;8.23;;;3.53;;
61407;SDS011;47274;43.054;25.146;2023-05-10T08:58:37;6.05;;;3.25;;
61407;SDS011;47274;43.054;25.146;2023-05-10T09:01:03;12.73;;;3.90;;
61407;SDS011;47274;43.054;25.146;2023-05-10T09:03:30;8.65;;;3.20;;
61407;SDS011;47274;43.054;25.146;2023-05-10T09:05:57;4.53;;;3.10;;
61407;SDS011;47274;43.054;25.146;2023-05-10T09:08:23;7.55;;;3.85;;
61407;SDS011;47274;43.054;25.146;2023-05-10T09:10:54;9.13;;;3.60;;
61407;SDS011;47274;43.054;25.146;2023-05-10T09:13:20;7.30;;;3.40;;
61407;SDS011;47274;43.054;25.146;2023-05-10T09:15:48;5.53;;;3.20;;
61407;SDS011;47274;43.054;25.146;2023-05-10T09:18:14;8.93;;;3.28;;
61407;SDS011;47274;43.054;25.146;2023-05-10T09:20:40;6.22;;;3.10;;
61407;SDS011;47274;43.054;25.146;2023-05-10T09:23:06;5.85;;;2.92;;
61407;SDS011;47274;43.054;25.146;2023-05-10T09:25:32;5.53;;;3.30;;
61407;SDS011;47274;43.054;25.146;2023-05-10T09:27:59;5.60;;;2.90;;
61407;SDS011;47274;43.054;25.146;2023-05-10T09:30:26;4.38;;;2.88;;
61407;SDS011;47274;43.054;25.146;2023-05-10T09:32:53;6.43;;;3.00;;
61407;SDS011;47274;43.054;25.146;2023-05-10T09:35:20;4.38;;;2.80;;
61407;SDS011;47274;43.054;25.146;2023-05-10T09:37:52;5.30;;;2.95;;
61407;SDS011;47274;43.054;25.146;2023-05-10T09:40:21;5.70;;;3.33;;
61407;SDS011;47274;43.054;25.146;2023-05-10T09:42:59;5.60;;;2.88;;
61407;SDS011;47274;43.054;25.146;2023-05-10T09:45:30;5.18;;;2.92;;
61407;SDS011;47274;43.054;25.146;2023-05-10T09:47:57;3.42;;;2.80;;
61407;SDS011;47274;43.054;25.146;2023-05-10T09:50:24;5.00;;;2.67;;
61407;SDS011;47274;43.054;25.146;2023-05-10T09:52:57;4.97;;;2.90;;
61407;SDS011;47274;43.054;25.146;2023-05-10T09:55:25;4.45;;;3.05;;
61407;SDS011;47274;43.054;25.146;2023-05-10T09:58:06;6.43;;;3.35;;
61407;SDS011;47274;43.054;25.146;2023-05-10T10:00:36;5.78;;;3.30;;
61407;SDS011;47274;43.054;25.146;2023-05-10T10:03:03;4.40;;;3.20;;
61407;SDS011;47274;43.054;25.146;2023-05-10T10:08:00;9.45;;;3.30;;
61407;SDS011;47274;43.054;25.146;2023-05-10T10:10:28;5.35;;;3.63;;
61407;SDS011;47274;43.054;25.146;2023-05-10T10:12:54;5.63;;;3.03;;
61407;SDS011;47274;43.054;25.146;2023-05-10T10:15:21;5.13;;;2.88;;
61407;SDS011;47274;43.054;25.146;2023-05-10T10:17:48;5.35;;;3.13;;
61407;SDS011;47274;43.054;25.146;2023-05-10T10:20:15;7.55;;;3.67;;
61407;SDS011;47274;43.054;25.146;2023-05-10T10:22:41;8.23;;;3.60;;
61407;SDS011;47274;43.054;25.146;2023-05-10T10:25:09;5.88;;;3.60;;
61407;SDS011;47274;43.054;25.146;2023-05-10T10:27:54;5.35;;;3.40;;
61407;SDS011;47274;43.054;25.146;2023-05-10T10:36:07;5.63;;;3.08;;
61407;SDS011;47274;43.054;25.146;2023-05-10T10:39:16;5.07;;;3.10;;
61407;SDS011;47274;43.054;25.146;2023-05-10T10:41:34;6.28;;;3.35;;
61407;SDS011;47274;43.054;25.146;2023-05-10T10:47:06;4.70;;;3.10;;
61407;SDS011;47274;43.054;25.146;2023-05-10T10:52:14;4.18;;;3.20;;
61407;SDS011;47274;43.054;25.146;2023-05-10T10:54:50;15.50;;;5.18;;
61407;SDS011;47274;43.054;25.146;2023-05-10T10:57:43;5.65;;;3.30;;
61407;SDS011;47274;43.054;25.146;2023-05-10T11:02:48;7.10;;;3.63;;
61407;SDS011;47274;43.054;25.146;2023-05-10T11:05:24;9.90;;;3.90;;
61407;SDS011;47274;43.054;25.146;2023-05-10T11:07:51;9.52;;;4.40;;
61407;SDS011;47274;43.054;25.146;2023-05-10T11:10:21;16.67;;;7.18;;
61407;SDS011;47274;43.054;25.146;2023-05-10T11:13:06;5.72;;;3.15;;
61407;SDS011;47274;43.054;25.146;2023-05-10T11:15:39;10.35;;;3.58;;
61407;SDS011;47274;43.054;25.146;2023-05-10T11:18:20;8.82;;;3.40;;
61407;SDS011;47274;43.054;25.146;2023-05-10T11:20:57;8.55;;;3.50;;
61407;SDS011;47274;43.054;25.146;2023-05-10T11:23:31;4.93;;;3.20;;
61407;SDS011;47274;43.054;25.146;2023-05-10T11:25:59;7.57;;;3.33;;
61407;SDS011;47274;43.054;25.146;2023-05-10T11:28:26;6.85;;;3.33;;
61407;SDS011;47274;43.054;25.146;2023-05-10T11:30:53;5.80;;;3.10;;
61407;SDS011;47274;43.054;25.146;2023-05-10T11:33:20;8.82;;;3.60;;
61407;SDS011;47274;43.054;25.146;2023-05-10T11:35:45;9.00;;;3.40;;
61407;SDS011;47274;43.054;25.146;2023-05-10T11:38:12;8.85;;;3.70;;
61407;SDS011;47274;43.054;25.146;2023-05-10T11:40:39;7.88;;;3.33;;
61407;SDS011;47274;43.054;25.146;2023-05-10T11:43:05;5.28;;;3.00;;
61407;SDS011;47274;43.054;25.146;2023-05-10T11:45:32;4.40;;;3.00;;
61407;SDS011;47274;43.054;25.146;2023-05-10T11:47:58;7.78;;;3.28;;
61407;SDS011;47274;43.054;25.146;2023-05-10T11:50:24;7.72;;;3.10;;
61407;SDS011;47274;43.054;25.146;2023-05-10T11:52:53;5.80;;;3.30;;
61407;SDS011;47274;43.054;25.146;2023-05-10T11:55:20;12.07;;;3.80;;
61407;SDS011;47274;43.054;25.146;2023-05-10T11:57:47;9.15;;;3.90;;
61407;SDS011;47274;43.054;25.146;2023-05-10T12:00:16;6.20;;;3.40;;
61407;SDS011;47274;43.054;25.146;2023-05-10T12:02:42;6.07;;;3.30;;
61407;SDS011;47274;43.054;25.146;2023-05-10T12:05:08;7.07;;;3.20;;
61407;SDS011;47274;43.054;25.146;2023-05-10T12:07:35;6.25;;;3.55;;
61407;SDS011;47274;43.054;25.146;2023-05-10T12:10:05;5.22;;;3.28;;
61407;SDS011;47274;43.054;25.146;2023-05-10T12:12:41;9.45;;;3.60;;
61407;SDS011;47274;43.054;25.146;2023-05-10T12:15:12;11.05;;;4.18;;
61407;SDS011;47274;43.054;25.146;2023-05-10T12:17:47;4.38;;;3.55;;
61407;SDS011;47274;43.054;25.146;2023-05-10T12:20:14;4.75;;;3.42;;
61407;SDS011;47274;43.054;25.146;2023-05-10T12:22:41;10.40;;;3.60;;
61407;SDS011;47274;43.054;25.146;2023-05-10T12:25:19;8.10;;;3.70;;
61407;SDS011;47274;43.054;25.146;2023-05-10T12:27:50;9.00;;;3.53;;
61407;SDS011;47274;43.054;25.146;2023-05-10T12:30:21;4.72;;;3.58;;
61407;SDS011;47274;43.054;25.146;2023-05-10T12:32:47;5.93;;;3.53;;
61407;SDS011;47274;43.054;25.146;2023-05-10T12:35:13;7.78;;;3.70;;
61407;SDS011;47274;43.054;25.146;2023-05-10T12:37:40;5.03;;;3.63;;
61407;SDS011;47274;43.054;25.146;2023-05-10T12:40:07;5.90;;;3.85;;
61407;SDS011;47274;43.054;25.146;2023-05-10T12:42:36;7.43;;;3.45;;
61407;SDS011;47274;43.054;25.146;2023-05-10T12:45:03;8.55;;;3.63;;
61407;SDS011;47274;43.054;25.146;2023-05-10T12:47:31;6.15;;;3.50;;
61407;SDS011;47274;43.054;25.146;2023-05-10T12:49:57;4.05;;;3.35;;
61407;SDS011;47274;43.054;25.146;2023-05-10T12:52:24;7.28;;;3.65;;
61407;SDS011;47274;43.054;25.146;2023-05-10T12:54:50;9.45;;;4.03;;
61407;SDS011;47274;43.054;25.146;2023-05-10T12:57:16;5.80;;;3.50;;
61407;SDS011;47274;43.054;25.146;2023-05-10T12:59:42;11.20;;;4.18;;
61407;SDS011;47274;43.054;25.146;2023-05-10T13:02:08;5.57;;;3.53;;
61407;SDS011;47274;43.054;25.146;2023-05-10T13:04:34;8.85;;;3.95;;
61407;SDS011;47274;43.054;25.146;2023-05-10T13:07:02;6.30;;;3.80;;
61407;SDS011;47274;43.054;25.146;2023-05-10T13:09:28;8.80;;;4.93;;
61407;SDS011;47274;43.054;25.146;2023-05-10T13:11:54;4.70;;;3.30;;
61407;SDS011;47274;43.054;25.146;2023-05-10T13:14:20;10.10;;;4.30;;
61407;SDS011;47274;43.054;25.146;2023-05-10T13:16:47;6.60;;;4.22;;
61407;SDS011;47274;43.054;25.146;2023-05-10T13:19:16;8.73;;;3.90;;
61407;SDS011;47274;43.054;25.146;2023-05-10T13:21:42;8.65;;;3.53;;
61407;SDS011;47274;43.054;25.146;2023-05-10T13:24:10;5.40;;;3.65;;
61407;SDS011;47274;43.054;25.146;2023-05-10T13:26:39;8.18;;;3.42;;
61407;SDS011;47274;43.054;25.146;2023-05-10T13:29:06;5.30;;;3.30;;
61407;SDS011;47274;43.054;25.146;2023-05-10T13:31:32;6.07;;;3.80;;
61407;SDS011;47274;43.054;25.146;2023-05-10T13:33:59;4.18;;;3.33;;
61407;SDS011;47274;43.054;25.146;2023-05-10T13:36:25;6.43;;;3.22;;
61407;SDS011;47274;43.054;25.146;2023-05-10T13:38:50;8.63;;;3.60;;
61407;SDS011;47274;43.054;25.146;2023-05-10T13:41:16;8.10;;;3.80;;
61407;SDS011;47274;43.054;25.146;2023-05-10T13:43:42;5.03;;;3.13;;
61407;SDS011;47274;43.054;25.146;2023-05-10T13:46:08;7.90;;;3.42;;
61407;SDS011;47274;43.054;25.146;2023-05-10T13:48:33;7.88;;;3.30;;
61407;SDS011;47274;43.054;25.146;2023-05-10T13:50:59;6.80;;;3.30;;
61407;SDS011;47274;43.054;25.146;2023-05-10T13:53:25;6.90;;;3.70;;
61407;SDS011;47274;43.054;25.146;2023-05-10T13:55:50;7.90;;;3.75;;
61407;SDS011;47274;43.054;25.146;2023-05-10T13:58:16;6.70;;;3.60;;
61407;SDS011;47274;43.054;25.146;2023-05-10T14:00:42;5.65;;;3.53;;
61407;SDS011;47274;43.054;25.146;2023-05-10T14:03:08;7.68;;;4.03;;
61407;SDS011;47274;43.054;25.146;2023-05-10T14:05:36;4.95;;;3.65;;
61407;SDS011;47274;43.054;25.146;2023-05-10T14:08:02;10.25;;;3.67;;
61407;SDS011;47274;43.054;25.146;2023-05-10T14:10:27;5.63;;;3.40;;
61407;SDS011;47274;43.054;25.146;2023-05-10T14:12:53;7.95;;;3.47;;
61407;SDS011;47274;43.054;25.146;2023-05-10T14:15:19;7.82;;;3.60;;
61407;SDS011;47274;43.054;25.146;2023-05-10T14:17:45;4.63;;;3.47;;
61407;SDS011;47274;43.054;25.146;2023-05-10T14:20:11;6.95;;;3.85;;
61407;SDS011;47274;43.054;25.146;2023-05-10T14:22:37;7.22;;;3.78;;
61407;SDS011;47274;43.054;25.146;2023-05-10T14:25:03;9.02;;;3.72;;
61407;SDS011;47274;43.054;25.146;2023-05-10T14:27:29;6.13;;;3.40;;
61407;SDS011;47274;43.054;25.146;2023-05-10T14:29:55;4.15;;;3.17;;
61407;SDS011;47274;43.054;25.146;2023-05-10T14:32:21;5.95;;;3.38;;
61407;SDS011;47274;43.054;25.146;2023-05-10T14:34:47;5.15;;;3.58;;
61407;SDS011;47274;43.054;25.146;2023-05-10T14:37:13;7.72;;;3.80;;
61407;SDS011;47274;43.054;25.146;2023-05-10T14:39:40;9.98;;;4.57;;
61407;SDS011;47274;43.054;25.146;2023-05-10T14:42:07;8.85;;;4.68;;
61407;SDS011;47274;43.054;25.146;2023-05-10T14:44:35;6.45;;;3.90;;
61407;SDS011;47274;43.054;25.146;2023-05-10T14:47:00;5.30;;;3.70;;
61407;SDS011;47274;43.054;25.146;2023-05-10T14:49:26;8.82;;;4.40;;
61407;SDS011;47274;43.054;25.146;2023-05-10T14:51:52;8.52;;;3.75;;
61407;SDS011;47274;43.054;25.146;2023-05-10T14:54:18;8.98;;;3.60;;
61407;SDS011;47274;43.054;25.146;2023-05-10T14:56:44;7.78;;;3.63;;
61407;SDS011;47274;43.054;25.146;2023-05-10T14:59:10;5.70;;;3.20;;
61407;SDS011;47274;43.054;25.146;2023-05-10T15:01:35;6.80;;;3.30;;
61407;SDS011;47274;43.054;25.146;2023-05-10T15:04:03;7.40;;;3.70;;
61407;SDS011;47274;43.054;25.146;2023-05-10T15:06:32;6.00;;;3.55;;
61407;SDS011;47274;43.054;25.146;2023-05-10T15:09:00;7.10;;;3.30;;